Time;durP1;ratioP1;P1;durP2;ratioP2;P2;SDS_P1;SDS_P2;PMS_P1;PMS_P2;Temp;Humidity;BMP_temperature;BMP_pressure;BME280_temperature;BME280_humidity;BME280_pressure;Samples;Min_cycle;Max_cycle;Signal;HPM_P1;HPM_P2
2021/09/28 00:00:34;;;;;;;;;;;;;;;21.50;54.79;102542.09;2075042;28;835;-63
2021/09/28 00:01:34;;;;;;;;;;;;;;;21.48;54.42;102548.41;2074965;28;800;-64
2021/09/28 00:02:34;;;;;;;;;;;;;;;21.50;54.56;102553.75;2074988;28;820;-64
2021/09/28 00:03:34;;;;;;;;;;;;;;;21.50;54.66;102542.09;2075109;28;914;-63
2021/09/28 00:04:34;;;;;;;;;;;;;;;21.48;54.68;102550.22;2070931;28;2330;-63
2021/09/28 00:05:35;;;;;;;;;;;;;;;21.46;54.43;102542.13;2068565;28;2282;-63
2021/09/28 00:06:35;;;;;;;;;;;;;;;21.51;54.61;102538.50;2066953;28;833;-63
2021/09/28 00:07:35;;;;;;;;;;;;;;;21.53;53.79;102542.94;2066159;28;2001;-63
2021/09/28 00:08:37;;;;;;;;;;;;;;;21.53;54.67;102545.63;2066665;28;1306;-63
2021/09/28 00:09:37;;;;;;;;;;;;;;;21.48;54.49;102545.72;2066514;28;895;-63
2021/09/28 00:10:37;;;;;;;;;;;;;;;21.50;54.45;102548.38;2066835;28;842;-63
2021/09/28 00:11:38;;;;;;;;;;;;;;;21.50;54.87;102542.09;2066599;28;884;-62
2021/09/28 00:12:38;;;;;;;;;;;;;;;21.49;54.65;102546.59;2066932;28;957;-62
2021/09/28 00:13:39;;;;;;;;;;;;;;;21.48;54.57;102542.13;2066922;28;840;-63
2021/09/28 00:14:39;;;;;;;;;;;;;;;21.47;54.88;102546.63;2066891;28;1029;-62
2021/09/28 00:15:39;;;;;;;;;;;;;;;21.51;54.17;102550.16;2066843;28;771;-62
2021/09/28 00:16:39;;;;;;;;;;;;;;;21.56;54.46;102544.72;2066847;28;954;-62
2021/09/28 00:17:39;;;;;;;;;;;;;;;21.56;54.87;102544.72;2066831;28;1217;-62
2021/09/28 00:18:39;;;;;;;;;;;;;;;21.55;54.49;102545.66;2066855;28;832;-62
2021/09/28 00:19:40;;;;;;;;;;;;;;;21.58;54.41;102551.00;2066668;28;1041;-62
2021/09/28 00:20:40;;;;;;;;;;;;;;;21.58;54.22;102545.63;2066526;28;828;-62
2021/09/28 00:21:40;;;;;;;;;;;;;;;21.57;53.61;102549.22;2066862;28;790;-63
2021/09/28 00:22:41;;;;;;;;;;;;;;;21.57;54.57;102544.69;2066738;28;821;-63
2021/09/28 00:23:41;;;;;;;;;;;;;;;21.55;54.52;102545.66;2070602;28;1475;-63
2021/09/28 00:24:41;;;;;;;;;;;;;;;21.56;54.31;102547.44;2074912;28;970;-63
2021/09/28 00:25:42;;;;;;;;;;;;;;;21.52;54.30;102548.38;2074615;28;902;-63
2021/09/28 00:26:42;;;;;;;;;;;;;;;21.53;54.38;102552.84;2074264;28;887;-63
2021/09/28 00:27:42;;;;;;;;;;;;;;;21.49;54.91;102546.59;2074327;28;1982;-63
2021/09/28 00:28:42;;;;;;;;;;;;;;;21.52;54.78;102551.06;2074539;28;756;-64
2021/09/28 00:29:42;;;;;;;;;;;;;;;21.47;54.21;102552.00;2074914;28;991;-64
2021/09/28 00:30:43;;;;;;;;;;;;;;;21.50;54.01;102551.06;2074875;28;1053;-63
2021/09/28 00:31:43;;;;;;;;;;;;;;;21.47;54.41;102546.63;2074909;28;978;-63
2021/09/28 00:32:43;;;;;;;;;;;;;;;21.45;55.17;102543.03;2074884;28;840;-63
2021/09/28 00:33:44;;;;;;;;;;;;;;;21.51;54.85;102549.28;2074844;28;819;-63
2021/09/28 00:34:45;;;;;;;;;;;;;;;21.47;54.34;102545.75;2074683;28;768;-63
2021/09/28 00:35:45;;;;;;;;;;;;;;;21.43;54.27;102547.56;2067648;28;2254;-64
2021/09/28 00:36:45;;;;;;;;;;;;;;;21.40;54.95;102539.50;2066617;28;970;-63
2021/09/28 00:37:45;;;;;;;;;;;;;;;21.43;54.88;102543.97;2066586;28;827;-63
2021/09/28 00:38:45;;;;;;;;;;;;;;;21.41;54.98;102549.38;2066790;28;974;-63
2021/09/28 00:39:45;;;;;;;;;;;;;;;21.42;55.00;102548.47;2066632;28;986;-63
2021/09/28 00:40:46;;;;;;;;;;;;;;;21.43;54.49;102547.56;2066670;28;1212;-63
2021/09/28 00:41:46;;;;;;;;;;;;;;;21.43;54.45;102543.97;2066064;28;810;-63
2021/09/28 00:42:46;;;;;;;;;;;;;;;21.43;54.83;102536.78;2066112;28;765;-63
2021/09/28 00:43:48;;;;;;;;;;;;;;;21.50;54.46;102536.72;2066448;28;1013;-63
2021/09/28 00:44:48;;;;;;;;;;;;;;;21.44;54.32;102545.75;2066814;28;832;-63
2021/09/28 00:45:48;;;;;;;;;;;;;;;21.46;54.79;102541.25;2066726;28;919;-63
2021/09/28 00:46:49;;;;;;;;;;;;;;;21.45;54.63;102534.06;2066732;28;898;-64
2021/09/28 00:47:49;;;;;;;;;;;;;;;21.47;54.50;102538.53;2066717;28;1894;-63
2021/09/28 00:48:49;;;;;;;;;;;;;;;21.45;53.93;102539.47;2066694;28;938;-63
2021/09/28 00:49:49;;;;;;;;;;;;;;;21.47;54.76;102537.66;2066747;28;772;-63
2021/09/28 00:50:50;;;;;;;;;;;;;;;21.47;54.20;102538.53;2066479;28;1014;-63
2021/09/28 00:51:50;;;;;;;;;;;;;;;21.43;55.21;102538.59;2066541;28;892;-63
2021/09/28 00:52:51;;;;;;;;;;;;;;;21.42;55.22;102534.09;2067921;28;1317;-63
2021/09/28 00:53:53;;;;;;;;;;;;;;;21.47;54.37;102534.94;2068256;28;899;-63
2021/09/28 00:54:53;;;;;;;;;;;;;;;21.43;55.33;102543.97;2068125;28;966;-63
2021/09/28 00:55:53;;;;;;;;;;;;;;;21.40;54.63;102539.50;2068175;28;777;-63
2021/09/28 00:56:53;;;;;;;;;;;;;;;21.44;54.74;102533.16;2068089;28;970;-63
2021/09/28 00:57:57;;;;;;;;;;;;;;;21.44;54.93;102537.69;2068181;28;847;-63
2021/09/28 00:59:00;;;;;;;;;;;;;;;21.45;54.75;102534.06;2067863;28;800;-64
2021/09/28 01:00:02;;;;;;;;;;;;;;;21.40;55.00;102534.09;2068205;28;688;-63
2021/09/28 01:01:03;;;;;;;;;;;;;;;21.43;54.37;102539.47;2068036;28;1299;-63
2021/09/28 01:02:07;;;;;;;;;;;;;;;21.44;54.24;102535.84;2068097;28;799;-63
2021/09/28 01:03:08;;;;;;;;;;;;;;;21.42;54.74;102540.38;2067900;28;993;-63
2021/09/28 01:04:08;;;;;;;;;;;;;;;21.45;54.33;102534.06;2068137;28;859;-63
2021/09/28 01:05:09;;;;;;;;;;;;;;;21.43;54.83;102539.47;2067958;28;819;-63
2021/09/28 01:06:09;;;;;;;;;;;;;;;21.43;54.07;102531.38;2067658;28;824;-63
2021/09/28 01:07:09;;;;;;;;;;;;;;;21.41;53.76;102533.19;2068008;28;1349;-63
2021/09/28 01:08:10;;;;;;;;;;;;;;;21.43;54.85;102528.69;2067970;28;1890;-63
2021/09/28 01:09:13;;;;;;;;;;;;;;;21.39;54.90;102532.31;2067918;28;1402;-63
2021/09/28 01:10:14;;;;;;;;;;;;;;;21.43;54.06;102536.78;2068074;28;990;-63
2021/09/28 01:11:14;;;;;;;;;;;;;;;21.39;54.12;102537.72;2067682;28;1046;-63
2021/09/28 01:12:14;;;;;;;;;;;;;;;21.41;54.19;102529.63;2067599;28;793;-63
2021/09/28 01:13:14;;;;;;;;;;;;;;;21.40;54.54;102530.53;2067871;28;1313;-63
2021/09/28 01:14:14;;;;;;;;;;;;;;;21.42;54.62;102531.41;2068020;28;863;-63
2021/09/28 01:15:16;;;;;;;;;;;;;;;21.40;54.36;102525.13;2068046;28;859;-63
2021/09/28 01:16:16;;;;;;;;;;;;;;;21.42;54.76;102537.69;2067975;28;828;-63
2021/09/28 01:17:17;;;;;;;;;;;;;;;21.38;54.96;102530.53;2067360;28;871;-63
2021/09/28 01:18:18;;;;;;;;;;;;;;;21.40;54.72;102533.22;2067458;28;784;-63
2021/09/28 01:19:19;;;;;;;;;;;;;;;21.38;54.60;102527.84;2067810;28;921;-63
2021/09/28 01:20:19;;;;;;;;;;;;;;;21.40;54.46;102526.00;2067968;28;784;-63
2021/09/28 01:21:20;;;;;;;;;;;;;;;21.40;54.40;102526.00;2068027;28;851;-63
2021/09/28 01:22:20;;;;;;;;;;;;;;;21.42;54.27;102523.31;2068000;28;796;-64
2021/09/28 01:23:20;;;;;;;;;;;;;;;21.37;54.94;102523.34;2068883;28;1210;-64
2021/09/28 01:24:20;;;;;;;;;;;;;;;21.40;54.75;102523.31;2075677;28;950;-63
2021/09/28 01:25:20;;;;;;;;;;;;;;;21.39;54.71;102524.22;2076209;28;730;-63
2021/09/28 01:26:24;;;;;;;;;;;;;;;21.38;54.96;102522.44;2076033;28;852;-63
2021/09/28 01:27:24;;;;;;;;;;;;;;;21.38;55.38;102525.13;2075933;28;1906;-63
2021/09/28 01:28:24;;;;;;;;;;;;;;;21.40;54.85;102517.06;2076062;28;843;-63
2021/09/28 01:29:24;;;;;;;;;;;;;;;21.40;54.29;102515.22;2075865;28;974;-63
2021/09/28 01:30:25;;;;;;;;;;;;;;;21.37;54.24;102519.78;2075970;28;978;-63
2021/09/28 01:31:25;;;;;;;;;;;;;;;21.38;54.52;102518.88;2076030;28;823;-63
2021/09/28 01:32:25;;;;;;;;;;;;;;;21.38;55.02;102511.66;2075707;28;802;-63
2021/09/28 01:33:25;;;;;;;;;;;;;;;21.38;54.70;102510.78;2075996;28;962;-63
2021/09/28 01:34:25;;;;;;;;;;;;;;;21.39;54.64;102517.97;2076098;28;802;-64
2021/09/28 01:35:26;;;;;;;;;;;;;;;21.38;55.07;102518.88;2075887;28;974;-63
2021/09/28 01:36:26;;;;;;;;;;;;;;;21.38;54.49;102514.34;2075734;28;978;-63
2021/09/28 01:37:26;;;;;;;;;;;;;;;21.35;54.48;102514.38;2069666;28;2544;-63
2021/09/28 01:38:26;;;;;;;;;;;;;;;21.38;55.26;102508.09;2067576;28;821;-63
2021/09/28 01:39:26;;;;;;;;;;;;;;;21.38;55.45;102516.16;2067880;28;899;-64
2021/09/28 01:40:28;;;;;;;;;;;;;;;21.34;54.85;102512.59;2067898;28;1118;-63
2021/09/28 01:41:28;;;;;;;;;;;;;;;21.37;54.74;102507.19;2067591;28;1038;-64
2021/09/28 01:42:28;;;;;;;;;;;;;;;21.37;55.07;102509.00;2067712;28;831;-64
2021/09/28 01:43:29;;;;;;;;;;;;;;;21.35;55.04;102506.28;2067873;28;776;-63
2021/09/28 01:44:33;;;;;;;;;;;;;;;21.34;54.93;102507.22;2067793;28;803;-64
2021/09/28 01:45:34;;;;;;;;;;;;;;;21.37;54.16;102501.78;2067800;28;811;-64
2021/09/28 01:46:35;;;;;;;;;;;;;;;21.37;54.64;102507.19;2067797;28;794;-64
2021/09/28 01:47:35;;;;;;;;;;;;;;;21.34;54.50;102504.50;2067580;28;1983;-64
2021/09/28 01:48:41;;;;;;;;;;;;;;;21.32;54.83;102504.53;2067782;28;852;-64
2021/09/28 01:49:41;;;;;;;;;;;;;;;21.33;54.64;102500.03;2066957;28;808;-63
2021/09/28 01:50:41;;;;;;;;;;;;;;;21.33;54.64;102492.84;2067029;28;1029;-63
2021/09/28 01:51:41;;;;;;;;;;;;;;;21.35;55.29;102494.63;2067764;28;993;-63
2021/09/28 01:52:42;;;;;;;;;;;;;;;21.34;55.41;102485.63;2067744;28;839;-63
2021/09/28 01:53:42;;;;;;;;;;;;;;;21.32;54.67;102493.75;2067786;28;1029;-63
2021/09/28 01:54:42;;;;;;;;;;;;;;;21.35;54.82;102490.13;2067745;28;792;-63
2021/09/28 01:55:42;;;;;;;;;;;;;;;21.36;54.24;102485.63;2067380;28;828;-63
2021/09/28 01:56:43;;;;;;;;;;;;;;;21.36;54.97;102482.94;2067769;28;926;-63
2021/09/28 01:57:43;;;;;;;;;;;;;;;21.33;55.16;102486.56;2067722;28;958;-63
2021/09/28 01:58:43;;;;;;;;;;;;;;;21.35;55.07;102492.81;2067056;28;1014;-63
2021/09/28 01:59:44;;;;;;;;;;;;;;;21.38;54.57;102484.69;2067190;28;981;-64
2021/09/28 02:00:44;;;;;;;;;;;;;;;21.34;55.30;102485.63;2067426;28;918;-63
2021/09/28 02:01:44;;;;;;;;;;;;;;;21.35;54.88;102486.56;2067556;28;974;-63
2021/09/28 02:02:44;;;;;;;;;;;;;;;21.35;54.73;102479.34;2067626;28;831;-63
2021/09/28 02:03:44;;;;;;;;;;;;;;;21.38;54.57;102481.13;2066927;28;1109;-63
2021/09/28 02:04:44;;;;;;;;;;;;;;;21.38;54.97;102483.81;2067034;28;1400;-63
2021/09/28 02:05:45;;;;;;;;;;;;;;;21.37;54.68;102482.91;2067846;28;761;-63
2021/09/28 02:06:45;;;;;;;;;;;;;;;21.34;54.41;102482.94;2067584;28;978;-63
2021/09/28 02:07:45;;;;;;;;;;;;;;;21.38;54.16;102482.00;2066965;28;2267;-63
2021/09/28 02:08:45;;;;;;;;;;;;;;;21.38;55.04;102473.91;2070712;28;1354;-64
2021/09/28 02:09:45;;;;;;;;;;;;;;;21.35;54.46;102483.84;2075338;28;1028;-64
2021/09/28 02:10:46;;;;;;;;;;;;;;;21.36;55.07;102475.72;2075766;28;788;-63
2021/09/28 02:11:46;;;;;;;;;;;;;;;21.32;54.96;102480.28;2075743;28;894;-63
2021/09/28 02:12:46;;;;;;;;;;;;;;;21.36;54.88;102477.56;2075503;28;958;-64
2021/09/28 02:13:46;;;;;;;;;;;;;;;21.36;55.02;102485.63;2075696;28;827;-64
2021/09/28 02:14:46;;;;;;;;;;;;;;;21.35;55.26;102473.94;2075676;28;982;-63
2021/09/28 02:15:46;;;;;;;;;;;;;;;21.34;54.71;102477.56;2075709;28;780;-63
2021/09/28 02:16:47;;;;;;;;;;;;;;;21.32;55.46;102480.28;2075728;28;867;-64
2021/09/28 02:17:47;;;;;;;;;;;;;;;21.33;55.09;102481.16;2074941;28;1375;-63
2021/09/28 02:18:47;;;;;;;;;;;;;;;21.32;55.40;102473.97;2074890;28;1109;-63
2021/09/28 02:19:47;;;;;;;;;;;;;;;21.37;55.22;102476.66;2075677;28;811;-63
2021/09/28 02:20:47;;;;;;;;;;;;;;;21.38;55.15;102473.91;2075582;28;977;-64
2021/09/28 02:21:47;;;;;;;;;;;;;;;21.38;54.81;102475.72;2075610;28;1013;-63
2021/09/28 02:22:48;;;;;;;;;;;;;;;21.38;54.26;102470.34;2075564;28;890;-63
2021/09/28 02:23:48;;;;;;;;;;;;;;;21.37;55.06;102477.53;2075299;28;1209;-63
2021/09/28 02:24:49;;;;;;;;;;;;;;;21.37;54.53;102476.66;2075566;28;986;-63
2021/09/28 02:25:50;;;;;;;;;;;;;;;21.40;54.84;102476.63;2075527;28;807;-63
2021/09/28 02:26:50;;;;;;;;;;;;;;;21.34;54.61;102469.47;2075554;28;978;-63
2021/09/28 02:27:50;;;;;;;;;;;;;;;21.35;55.02;102473.94;2075481;28;1985;-63
2021/09/28 02:28:50;;;;;;;;;;;;;;;21.37;54.10;102463.16;2075382;28;911;-63
2021/09/28 02:29:51;;;;;;;;;;;;;;;21.38;54.44;102473.91;2075531;28;1314;-64
2021/09/28 02:30:51;;;;;;;;;;;;;;;21.35;54.33;102473.94;2075585;28;808;-63
2021/09/28 02:31:51;;;;;;;;;;;;;;;21.36;55.14;102467.66;2075340;28;710;-64
2021/09/28 02:32:51;;;;;;;;;;;;;;;21.37;54.81;102469.44;2075430;28;776;-64
2021/09/28 02:33:51;;;;;;;;;;;;;;;21.37;54.22;102472.13;2074921;28;1299;-64
2021/09/28 02:34:52;;;;;;;;;;;;;;;21.38;54.59;102463.13;2074977;28;835;-64
2021/09/28 02:35:52;;;;;;;;;;;;;;;21.37;54.31;102466.75;2074927;28;1280;-63
2021/09/28 02:36:52;;;;;;;;;;;;;;;21.36;55.47;102466.78;2074944;28;1213;-63
2021/09/28 02:37:53;;;;;;;;;;;;;;;21.37;54.79;102466.75;2075425;28;1416;-63
2021/09/28 02:38:53;;;;;;;;;;;;;;;21.34;54.84;102464.06;2075460;28;803;-63
2021/09/28 02:39:53;;;;;;;;;;;;;;;21.36;54.72;102464.06;2075482;28;808;-64
2021/09/28 02:40:53;;;;;;;;;;;;;;;21.36;55.20;102470.34;2075453;28;863;-63
2021/09/28 02:41:53;;;;;;;;;;;;;;;21.32;54.13;102457.81;2075475;28;1029;-63
2021/09/28 02:42:54;;;;;;;;;;;;;;;21.37;53.93;102460.47;2075348;28;1029;-63
2021/09/28 02:43:54;;;;;;;;;;;;;;;21.36;54.89;102456.88;2075199;28;859;-63
2021/09/28 02:44:55;;;;;;;;;;;;;;;21.35;55.07;102455.09;2075424;28;982;-64
2021/09/28 02:45:56;;;;;;;;;;;;;;;21.35;54.62;102465.00;2075498;28;816;-64
2021/09/28 02:46:56;;;;;;;;;;;;;;;21.31;55.22;102456.94;2075468;28;776;-64
2021/09/28 02:47:56;;;;;;;;;;;;;;;21.33;54.64;102456.91;2075352;28;1949;-63
2021/09/28 02:48:56;;;;;;;;;;;;;;;21.34;55.18;102456.00;2075075;28;1048;-63
2021/09/28 02:49:56;;;;;;;;;;;;;;;21.38;54.53;102456.88;2075456;28;994;-63
2021/09/28 02:50:57;;;;;;;;;;;;;;;21.33;55.19;102455.13;2075499;28;775;-64
2021/09/28 02:51:57;;;;;;;;;;;;;;;21.35;55.11;102459.59;2075350;28;872;-63
2021/09/28 02:52:57;;;;;;;;;;;;;;;21.36;55.25;102453.28;2075349;28;977;-64
2021/09/28 02:53:57;;;;;;;;;;;;;;;21.32;54.90;102458.72;2075281;28;1213;-64
2021/09/28 02:54:57;;;;;;;;;;;;;;;21.28;54.63;102445.28;2075146;28;833;-64
2021/09/28 02:55:57;;;;;;;;;;;;;;;21.32;54.61;102456.03;2075398;28;776;-63
2021/09/28 02:56:58;;;;;;;;;;;;;;;21.34;54.92;102450.59;2075340;28;993;-64
2021/09/28 02:57:58;;;;;;;;;;;;;;;21.35;54.67;102455.09;2075360;28;982;-64
2021/09/28 02:58:59;;;;;;;;;;;;;;;21.32;55.27;102453.31;2075335;28;762;-63
2021/09/28 02:59:59;;;;;;;;;;;;;;;21.33;54.94;102454.19;2074937;28;760;-63
2021/09/28 03:00:59;;;;;;;;;;;;;;;21.31;54.33;102456.94;2075342;28;986;-64
2021/09/28 03:01:59;;;;;;;;;;;;;;;21.34;55.11;102461.38;2068048;28;2274;-63
2021/09/28 03:02:59;;;;;;;;;;;;;;;21.35;54.06;102452.38;2066821;28;879;-64
2021/09/28 03:04:00;;;;;;;;;;;;;;;21.36;55.27;102453.28;2066621;28;1157;-64
2021/09/28 03:05:00;;;;;;;;;;;;;;;21.32;54.98;102449.72;2066575;28;1092;-63
2021/09/28 03:06:00;;;;;;;;;;;;;;;21.32;55.14;102457.81;2066825;28;784;-63
2021/09/28 03:07:00;;;;;;;;;;;;;;;21.32;54.71;102447.94;2067079;28;1013;-63
2021/09/28 03:08:00;;;;;;;;;;;;;;;21.31;55.47;102446.16;2067097;28;1894;-64
2021/09/28 03:09:00;;;;;;;;;;;;;;;21.33;54.49;102451.50;2066951;28;1374;-64
2021/09/28 03:10:01;;;;;;;;;;;;;;;21.35;55.00;102454.19;2067137;28;888;-63
2021/09/28 03:11:01;;;;;;;;;;;;;;;21.29;55.19;102447.97;2066992;28;907;-64
2021/09/28 03:12:02;;;;;;;;;;;;;;;21.29;54.63;102430.88;2067073;28;792;-64
2021/09/28 03:13:02;;;;;;;;;;;;;;;21.30;54.32;102435.38;2066945;28;990;-64
2021/09/28 03:14:03;;;;;;;;;;;;;;;21.33;55.13;102427.25;2067115;28;1326;-64
2021/09/28 03:15:03;;;;;;;;;;;;;;;21.32;55.04;102442.53;2066996;28;931;-64
2021/09/28 03:16:03;;;;;;;;;;;;;;;21.32;54.39;102430.84;2067060;28;1225;-64
2021/09/28 03:17:04;;;;;;;;;;;;;;;21.32;54.90;102429.06;2067130;28;1328;-64
2021/09/28 03:18:04;;;;;;;;;;;;;;;21.29;55.33;102430.88;2067074;28;1037;-64
2021/09/28 03:19:04;;;;;;;;;;;;;;;21.30;55.02;102429.97;2067024;28;712;-64
2021/09/28 03:20:05;;;;;;;;;;;;;;;21.32;55.00;102430.84;2067099;28;884;-64
2021/09/28 03:21:05;;;;;;;;;;;;;;;21.32;54.89;102420.97;2067083;28;871;-64
2021/09/28 03:22:05;;;;;;;;;;;;;;;21.33;55.09;102419.16;2066657;28;884;-64
2021/09/28 03:23:05;;;;;;;;;;;;;;;21.30;54.86;102416.50;2067066;28;990;-64
2021/09/28 03:24:06;;;;;;;;;;;;;;;21.30;54.85;102416.50;2074295;28;1242;-64
2021/09/28 03:25:06;;;;;;;;;;;;;;;21.32;54.35;102418.28;2075159;28;986;-63
2021/09/28 03:26:06;;;;;;;;;;;;;;;21.29;55.77;102415.63;2075087;28;1322;-63
2021/09/28 03:27:06;;;;;;;;;;;;;;;21.30;55.45;102411.09;2074857;28;859;-63
2021/09/28 03:28:07;;;;;;;;;;;;;;;21.33;55.08;102419.16;2074966;28;1991;-63
2021/09/28 03:29:07;;;;;;;;;;;;;;;21.31;55.13;102407.50;2075175;28;804;-63
2021/09/28 03:30:08;;;;;;;;;;;;;;;21.31;54.78;102408.41;2075144;28;993;-63
2021/09/28 03:31:09;;;;;;;;;;;;;;;21.31;54.85;102408.41;2075049;28;1143;-64
2021/09/28 03:32:09;;;;;;;;;;;;;;;21.31;54.70;102415.59;2075119;28;982;-64
2021/09/28 03:33:09;;;;;;;;;;;;;;;21.32;55.54;102411.97;2074894;28;839;-64
2021/09/28 03:34:09;;;;;;;;;;;;;;;21.33;54.70;102413.78;2075106;28;1045;-64
2021/09/28 03:35:10;;;;;;;;;;;;;;;21.33;54.80;102408.38;2074984;28;853;-63
2021/09/28 03:36:10;;;;;;;;;;;;;;;21.32;55.20;102410.19;2075132;28;885;-64
2021/09/28 03:37:10;;;;;;;;;;;;;;;21.31;55.40;102412.91;2075079;28;1053;-64
2021/09/28 03:38:10;;;;;;;;;;;;;;;21.29;55.02;102403.94;2074810;28;811;-64
2021/09/28 03:39:11;;;;;;;;;;;;;;;21.33;54.96;102414.69;2075049;28;922;-64
2021/09/28 03:40:12;;;;;;;;;;;;;;;21.33;55.20;102416.47;2075134;28;885;-64
2021/09/28 03:41:12;;;;;;;;;;;;;;;21.33;55.14;102411.06;2075120;28;851;-64
2021/09/28 03:42:12;;;;;;;;;;;;;;;21.35;54.88;102408.38;2075074;28;1025;-63
2021/09/28 03:43:12;;;;;;;;;;;;;;;21.35;54.46;102400.28;2074995;28;1337;-64
2021/09/28 03:44:12;;;;;;;;;;;;;;;21.31;54.71;102408.41;2074803;28;978;-64
2021/09/28 03:45:13;;;;;;;;;;;;;;;21.37;54.54;102404.75;2075084;28;858;-64
2021/09/28 03:46:13;;;;;;;;;;;;;;;21.35;54.83;102400.28;2075054;28;855;-64
2021/09/28 03:47:13;;;;;;;;;;;;;;;21.33;54.64;102400.28;2075087;28;1002;-64
2021/09/28 03:48:13;;;;;;;;;;;;;;;21.33;55.36;102405.69;2074919;28;1957;-64
2021/09/28 03:49:13;;;;;;;;;;;;;;;21.33;54.91;102397.59;2074901;28;772;-64
2021/09/28 03:50:13;;;;;;;;;;;;;;;21.36;54.50;102402.09;2075116;28;918;-64
2021/09/28 03:51:14;;;;;;;;;;;;;;;21.35;55.11;102408.38;2069241;28;2623;-63
2021/09/28 03:52:14;;;;;;;;;;;;;;;21.35;54.98;102397.59;2066640;28;772;-63
2021/09/28 03:53:14;;;;;;;;;;;;;;;21.29;55.07;102396.75;2066246;28;2631;-64
2021/09/28 03:54:15;;;;;;;;;;;;;;;21.34;55.03;102399.38;2066833;28;772;-64
2021/09/28 03:55:19;;;;;;;;;;;;;;;21.34;54.61;102402.09;2066947;28;785;-64
2021/09/28 03:56:20;;;;;;;;;;;;;;;21.33;54.45;102397.59;2066853;28;871;-64
2021/09/28 03:57:20;;;;;;;;;;;;;;;21.30;54.92;102389.56;2066715;28;863;-64
2021/09/28 03:58:20;;;;;;;;;;;;;;;21.34;54.79;102391.31;2066875;28;792;-64
2021/09/28 03:59:20;;;;;;;;;;;;;;;21.31;55.10;102403.03;2066906;28;951;-64
2021/09/28 04:00:21;;;;;;;;;;;;;;;21.34;54.09;102388.59;2066495;28;1034;-64
2021/09/28 04:01:21;;;;;;;;;;;;;;;21.31;55.25;102396.72;2066240;28;824;-64
2021/09/28 04:02:22;;;;;;;;;;;;;;;21.33;55.26;102390.41;2066196;28;1303;-64
2021/09/28 04:03:22;;;;;;;;;;;;;;;21.71;53.57;102390.88;2066363;28;772;-64
2021/09/28 04:04:22;;;;;;;;;;;;;;;22.09;53.20;102387.63;2066887;28;800;-64
2021/09/28 04:05:23;;;;;;;;;;;;;;;22.21;52.25;102395.53;2066642;28;868;-64
2021/09/28 04:06:23;;;;;;;;;;;;;;;22.28;51.33;102386.44;2066854;28;1037;-64
2021/09/28 04:07:23;;;;;;;;;;;;;;;22.36;51.84;102389.91;2066993;28;687;-64
2021/09/28 04:08:23;;;;;;;;;;;;;;;22.42;51.72;102388.88;2066362;28;1886;-64
2021/09/28 04:09:23;;;;;;;;;;;;;;;22.44;52.38;102387.09;2066649;28;1265;-64
2021/09/28 04:10:23;;;;;;;;;;;;;;;22.54;50.99;102397.72;2066794;28;864;-64
2021/09/28 04:11:24;;;;;;;;;;;;;;;22.54;51.26;102393.22;2066855;28;777;-64
2021/09/28 04:12:24;;;;;;;;;;;;;;;22.60;51.36;102397.63;2066230;28;887;-64
2021/09/28 04:13:24;;;;;;;;;;;;;;;22.62;50.52;102401.19;2066037;28;934;-64
2021/09/28 04:14:24;;;;;;;;;;;;;;;22.62;51.31;102396.66;2066190;28;843;-64
2021/09/28 04:15:25;;;;;;;;;;;;;;;22.67;50.56;102393.88;2066375;28;777;-64
2021/09/28 04:16:28;;;;;;;;;;;;;;;22.71;50.35;102394.72;2066831;28;849;-64
2021/09/28 04:17:28;;;;;;;;;;;;;;;22.70;50.77;102395.66;2066831;28;941;-64
2021/09/28 04:18:28;;;;;;;;;;;;;;;22.74;50.83;102400.06;2066848;28;781;-65
2021/09/28 04:19:28;;;;;;;;;;;;;;;22.75;50.48;102391.94;2066875;28;863;-64
2021/09/28 04:20:28;;;;;;;;;;;;;;;22.75;50.40;102400.03;2066790;28;998;-64
2021/09/28 04:21:29;;;;;;;;;;;;;;;22.73;50.75;102396.47;2066880;28;1261;-64
2021/09/28 04:22:29;;;;;;;;;;;;;;;22.74;51.01;102392.84;2066426;28;1208;-64
2021/09/28 04:23:29;;;;;;;;;;;;;;;22.76;50.90;102393.72;2068918;28;1214;-64
2021/09/28 04:24:30;;;;;;;;;;;;;;;22.78;50.52;102396.41;2074313;28;1188;-64
2021/09/28 04:25:30;;;;;;;;;;;;;;;22.82;50.78;102394.53;2073974;28;1156;-64
2021/09/28 04:26:30;;;;;;;;;;;;;;;22.80;50.71;102391.88;2074398;28;832;-64
2021/09/28 04:27:30;;;;;;;;;;;;;;;22.81;50.30;102390.94;2075568;28;1914;-64
2021/09/28 04:28:30;;;;;;;;;;;;;;;22.79;50.23;102395.47;2076150;28;927;-64
2021/09/28 04:29:31;;;;;;;;;;;;;;;22.82;50.49;102390.03;2076504;28;871;-64
2021/09/28 04:30:31;;;;;;;;;;;;;;;22.82;50.22;102390.03;2075801;28;1443;-64
2021/09/28 04:31:31;;;;;;;;;;;;;;;22.83;50.76;102397.22;2075918;28;784;-64
2021/09/28 04:32:31;;;;;;;;;;;;;;;22.85;49.99;102402.56;2076476;28;891;-64
2021/09/28 04:33:31;;;;;;;;;;;;;;;22.84;50.65;102395.38;2076078;28;1375;-64
2021/09/28 04:34:32;;;;;;;;;;;;;;;22.84;50.72;102401.69;2076335;28;820;-64
2021/09/28 04:35:32;;;;;;;;;;;;;;;22.85;49.88;102395.38;2076492;28;863;-64
2021/09/28 04:36:32;;;;;;;;;;;;;;;22.90;50.08;102400.69;2076391;28;845;-64
2021/09/28 04:37:32;;;;;;;;;;;;;;;22.84;50.76;102401.69;2076463;28;974;-64
2021/09/28 04:38:32;;;;;;;;;;;;;;;22.89;50.30;102393.50;2076440;28;848;-64
2021/09/28 04:39:32;;;;;;;;;;;;;;;22.89;50.40;102399.81;2076464;28;859;-65
2021/09/28 04:40:33;;;;;;;;;;;;;;;22.92;50.31;102405.16;2076364;28;895;-64
2021/09/28 04:41:33;;;;;;;;;;;;;;;22.92;50.56;102396.13;2076172;28;792;-64
2021/09/28 04:42:33;;;;;;;;;;;;;;;22.89;50.65;102405.22;2076361;28;911;-64
2021/09/28 04:43:33;;;;;;;;;;;;;;;22.88;50.45;102397.09;2076438;28;1036;-64
2021/09/28 04:44:33;;;;;;;;;;;;;;;22.93;50.94;102403.31;2076397;28;827;-64
2021/09/28 04:45:33;;;;;;;;;;;;;;;22.90;50.23;102400.69;2076412;28;986;-64
2021/09/28 04:46:34;;;;;;;;;;;;;;;22.92;50.40;102401.53;2076317;28;1049;-64
2021/09/28 04:47:34;;;;;;;;;;;;;;;22.93;50.49;102403.31;2076315;28;1946;-64
2021/09/28 04:48:34;;;;;;;;;;;;;;;22.92;50.02;102405.16;2076387;28;831;-64
2021/09/28 04:49:34;;;;;;;;;;;;;;;22.93;50.40;102401.53;2076120;28;871;-64
2021/09/28 04:50:34;;;;;;;;;;;;;;;22.94;50.39;102403.31;2076350;28;978;-64
2021/09/28 04:51:34;;;;;;;;;;;;;;;22.93;50.41;102404.22;2076351;28;824;-64
2021/09/28 04:52:36;;;;;;;;;;;;;;;22.94;50.46;102400.59;2075973;28;764;-64
2021/09/28 04:53:36;;;;;;;;;;;;;;;22.93;50.40;102395.22;2076469;28;819;-64
2021/09/28 04:54:36;;;;;;;;;;;;;;;22.95;50.77;102399.69;2076261;28;832;-64
2021/09/28 04:55:36;;;;;;;;;;;;;;;22.94;50.32;102403.31;2076295;28;1378;-64
2021/09/28 04:56:37;;;;;;;;;;;;;;;22.97;50.08;102407.75;2076260;28;997;-64
2021/09/28 04:57:37;;;;;;;;;;;;;;;22.92;50.74;102394.34;2076257;28;772;-64
2021/09/28 04:58:37;;;;;;;;;;;;;;;22.97;50.32;102402.34;2076262;28;981;-64
2021/09/28 04:59:37;;;;;;;;;;;;;;;22.97;50.47;102402.34;2076252;28;981;-64
2021/09/28 05:00:37;;;;;;;;;;;;;;;22.98;50.69;102403.22;2075825;28;760;-64
2021/09/28 05:01:38;;;;;;;;;;;;;;;22.96;50.37;102397.88;2076256;28;811;-64
2021/09/28 05:02:38;;;;;;;;;;;;;;;22.95;50.86;102388.88;2076132;28;863;-64
2021/09/28 05:03:38;;;;;;;;;;;;;;;22.93;50.62;102388.03;2076262;28;839;-64
2021/09/28 05:04:38;;;;;;;;;;;;;;;23.00;50.21;102385.16;2076163;28;946;-64
2021/09/28 05:05:38;;;;;;;;;;;;;;;22.99;50.10;102387.00;2076133;28;867;-64
2021/09/28 05:06:38;;;;;;;;;;;;;;;23.02;50.07;102380.63;2076133;28;782;-64
2021/09/28 05:07:39;;;;;;;;;;;;;;;22.99;50.36;102384.28;2076147;28;1965;-64
2021/09/28 05:08:39;;;;;;;;;;;;;;;22.98;50.02;102385.22;2075683;28;1210;-64
2021/09/28 05:09:40;;;;;;;;;;;;;;;23.00;50.67;102391.47;2076069;28;1154;-64
2021/09/28 05:10:40;;;;;;;;;;;;;;;23.03;50.36;102393.22;2076076;28;847;-64
2021/09/28 05:11:40;;;;;;;;;;;;;;;23.04;49.97;102384.19;2076184;28;765;-64
2021/09/28 05:12:40;;;;;;;;;;;;;;;23.03;50.81;102395.91;2076152;28;831;-64
2021/09/28 05:13:41;;;;;;;;;;;;;;;23.03;50.69;102390.50;2075893;28;978;-64
2021/09/28 05:14:41;;;;;;;;;;;;;;;23.02;50.37;102400.44;2076129;28;899;-65
2021/09/28 05:15:41;;;;;;;;;;;;;;;23.03;50.01;102388.72;2076027;28;849;-64
2021/09/28 05:16:41;;;;;;;;;;;;;;;23.06;49.61;102390.47;2075496;28;1033;-64